sensor_id;sensor_type;location;lat;lon;timestamp;P1;durP1;ratioP1;P2;durP2;ratioP2
14369;SDS011;7268;50.792;0.252;2022-07-24T00:00:51;6.10;;;1.40;;
14369;SDS011;7268;50.792;0.252;2022-07-24T00:03:19;4.75;;;1.63;;
14369;SDS011;7268;50.792;0.252;2022-07-24T00:05:46;7.78;;;1.23;;
14369;SDS011;7268;50.792;0.252;2022-07-24T00:08:13;7.50;;;1.20;;
14369;SDS011;7268;50.792;0.252;2022-07-24T00:10:41;2.10;;;1.25;;
14369;SDS011;7268;50.792;0.252;2022-07-24T00:13:08;3.45;;;1.15;;
14369;SDS011;7268;50.792;0.252;2022-07-24T00:15:35;2.75;;;1.60;;
14369;SDS011;7268;50.792;0.252;2022-07-24T00:18:03;5.80;;;2.35;;
14369;SDS011;7268;50.792;0.252;2022-07-24T00:20:30;2.40;;;1.38;;
14369;SDS011;7268;50.792;0.252;2022-07-24T00:22:57;7.07;;;1.63;;
14369;SDS011;7268;50.792;0.252;2022-07-24T00:25:24;5.90;;;1.58;;
14369;SDS011;7268;50.792;0.252;2022-07-24T00:27:52;5.43;;;1.80;;
14369;SDS011;7268;50.792;0.252;2022-07-24T00:30:19;4.97;;;1.65;;
14369;SDS011;7268;50.792;0.252;2022-07-24T00:32:47;3.55;;;1.10;;
14369;SDS011;7268;50.792;0.252;2022-07-24T00:35:14;4.30;;;1.55;;
14369;SDS011;7268;50.792;0.252;2022-07-24T00:37:41;4.22;;;1.20;;
14369;SDS011;7268;50.792;0.252;2022-07-24T00:40:09;5.20;;;1.52;;
14369;SDS011;7268;50.792;0.252;2022-07-24T00:42:36;9.20;;;1.52;;
14369;SDS011;7268;50.792;0.252;2022-07-24T00:45:03;5.75;;;1.20;;
14369;SDS011;7268;50.792;0.252;2022-07-24T00:47:48;3.78;;;1.42;;
14369;SDS011;7268;50.792;0.252;2022-07-24T00:50:15;2.80;;;1.30;;
14369;SDS011;7268;50.792;0.252;2022-07-24T00:52:46;3.92;;;1.38;;
14369;SDS011;7268;50.792;0.252;2022-07-24T00:55:13;2.40;;;1.42;;
14369;SDS011;7268;50.792;0.252;2022-07-24T00:57:40;7.00;;;1.67;;
14369;SDS011;7268;50.792;0.252;2022-07-24T01:00:10;2.50;;;1.20;;
14369;SDS011;7268;50.792;0.252;2022-07-24T01:02:41;3.03;;;2.22;;
14369;SDS011;7268;50.792;0.252;2022-07-24T01:05:09;4.95;;;1.60;;
14369;SDS011;7268;50.792;0.252;2022-07-24T01:07:36;2.50;;;1.30;;
14369;SDS011;7268;50.792;0.252;2022-07-24T01:10:04;2.10;;;1.27;;
14369;SDS011;7268;50.792;0.252;2022-07-24T01:12:32;2.95;;;1.25;;
14369;SDS011;7268;50.792;0.252;2022-07-24T01:15:00;2.33;;;1.25;;
14369;SDS011;7268;50.792;0.252;2022-07-24T01:17:31;2.47;;;1.10;;
14369;SDS011;7268;50.792;0.252;2022-07-24T01:19:58;5.22;;;1.58;;
14369;SDS011;7268;50.792;0.252;2022-07-24T01:22:26;4.47;;;1.25;;
14369;SDS011;7268;50.792;0.252;2022-07-24T01:24:54;1.75;;;1.10;;
14369;SDS011;7268;50.792;0.252;2022-07-24T01:27:22;4.38;;;1.40;;
14369;SDS011;7268;50.792;0.252;2022-07-24T01:29:50;3.15;;;1.20;;
14369;SDS011;7268;50.792;0.252;2022-07-24T01:32:18;5.43;;;1.60;;
14369;SDS011;7268;50.792;0.252;2022-07-24T01:34:45;4.80;;;1.30;;
14369;SDS011;7268;50.792;0.252;2022-07-24T01:37:13;4.25;;;1.40;;
14369;SDS011;7268;50.792;0.252;2022-07-24T01:39:40;1.70;;;1.40;;
14369;SDS011;7268;50.792;0.252;2022-07-24T01:42:07;2.55;;;1.23;;
14369;SDS011;7268;50.792;0.252;2022-07-24T01:44:35;2.75;;;1.35;;
14369;SDS011;7268;50.792;0.252;2022-07-24T01:47:02;7.28;;;1.38;;
14369;SDS011;7268;50.792;0.252;2022-07-24T01:49:29;4.43;;;1.60;;
14369;SDS011;7268;50.792;0.252;2022-07-24T01:51:57;1.67;;;1.23;;
14369;SDS011;7268;50.792;0.252;2022-07-24T01:54:24;5.05;;;1.40;;
14369;SDS011;7268;50.792;0.252;2022-07-24T01:56:51;6.03;;;1.38;;
14369;SDS011;7268;50.792;0.252;2022-07-24T01:59:19;4.03;;;1.40;;
14369;SDS011;7268;50.792;0.252;2022-07-24T02:01:46;7.40;;;1.63;;
14369;SDS011;7268;50.792;0.252;2022-07-24T02:04:13;6.40;;;1.33;;
14369;SDS011;7268;50.792;0.252;2022-07-24T02:06:41;2.88;;;1.50;;
14369;SDS011;7268;50.792;0.252;2022-07-24T02:09:08;4.22;;;1.42;;
14369;SDS011;7268;50.792;0.252;2022-07-24T02:11:35;2.85;;;1.13;;
14369;SDS011;7268;50.792;0.252;2022-07-24T02:14:03;6.05;;;1.50;;
14369;SDS011;7268;50.792;0.252;2022-07-24T02:16:30;7.28;;;1.83;;
14369;SDS011;7268;50.792;0.252;2022-07-24T02:18:57;4.90;;;1.52;;
14369;SDS011;7268;50.792;0.252;2022-07-24T02:21:25;6.82;;;1.80;;
14369;SDS011;7268;50.792;0.252;2022-07-24T02:23:53;4.70;;;1.45;;
14369;SDS011;7268;50.792;0.252;2022-07-24T02:26:20;7.07;;;1.85;;
14369;SDS011;7268;50.792;0.252;2022-07-24T02:28:48;4.25;;;1.50;;
14369;SDS011;7268;50.792;0.252;2022-07-24T02:31:15;2.10;;;1.25;;
14369;SDS011;7268;50.792;0.252;2022-07-24T02:33:45;4.78;;;1.42;;
14369;SDS011;7268;50.792;0.252;2022-07-24T02:36:12;4.20;;;1.70;;
14369;SDS011;7268;50.792;0.252;2022-07-24T02:38:40;4.13;;;2.08;;
14369;SDS011;7268;50.792;0.252;2022-07-24T02:41:07;4.10;;;1.55;;
14369;SDS011;7268;50.792;0.252;2022-07-24T02:43:35;4.85;;;1.60;;
14369;SDS011;7268;50.792;0.252;2022-07-24T02:46:02;1.92;;;1.33;;
14369;SDS011;7268;50.792;0.252;2022-07-24T02:48:30;6.97;;;1.83;;
14369;SDS011;7268;50.792;0.252;2022-07-24T02:50:57;3.78;;;1.40;;
14369;SDS011;7268;50.792;0.252;2022-07-24T02:53:25;4.18;;;1.55;;
14369;SDS011;7268;50.792;0.252;2022-07-24T02:55:52;7.53;;;1.55;;
14369;SDS011;7268;50.792;0.252;2022-07-24T02:58:19;2.40;;;1.40;;
14369;SDS011;7268;50.792;0.252;2022-07-24T03:00:47;3.10;;;1.30;;
14369;SDS011;7268;50.792;0.252;2022-07-24T03:03:14;3.55;;;1.73;;
14369;SDS011;7268;50.792;0.252;2022-07-24T03:05:42;2.80;;;1.48;;
14369;SDS011;7268;50.792;0.252;2022-07-24T03:08:09;3.35;;;1.60;;
14369;SDS011;7268;50.792;0.252;2022-07-24T03:10:36;4.65;;;1.60;;
14369;SDS011;7268;50.792;0.252;2022-07-24T03:13:04;4.97;;;1.60;;
14369;SDS011;7268;50.792;0.252;2022-07-24T03:15:31;6.10;;;1.58;;
14369;SDS011;7268;50.792;0.252;2022-07-24T03:17:58;1.80;;;1.27;;
14369;SDS011;7268;50.792;0.252;2022-07-24T03:20:27;3.28;;;1.67;;
14369;SDS011;7268;50.792;0.252;2022-07-24T03:22:55;6.80;;;1.83;;
14369;SDS011;7268;50.792;0.252;2022-07-24T03:25:22;4.70;;;1.55;;
14369;SDS011;7268;50.792;0.252;2022-07-24T03:27:49;5.40;;;1.48;;
14369;SDS011;7268;50.792;0.252;2022-07-24T03:30:17;3.50;;;1.20;;
14369;SDS011;7268;50.792;0.252;2022-07-24T03:32:44;5.18;;;2.13;;
14369;SDS011;7268;50.792;0.252;2022-07-24T03:35:12;4.10;;;1.48;;
14369;SDS011;7268;50.792;0.252;2022-07-24T03:37:39;3.75;;;1.52;;
14369;SDS011;7268;50.792;0.252;2022-07-24T03:40:07;5.40;;;1.30;;
14369;SDS011;7268;50.792;0.252;2022-07-24T03:42:34;2.88;;;1.48;;
14369;SDS011;7268;50.792;0.252;2022-07-24T03:45:02;3.03;;;1.27;;
14369;SDS011;7268;50.792;0.252;2022-07-24T03:47:29;3.45;;;1.52;;
14369;SDS011;7268;50.792;0.252;2022-07-24T03:49:57;2.17;;;1.48;;
14369;SDS011;7268;50.792;0.252;2022-07-24T03:52:24;3.80;;;1.30;;
14369;SDS011;7268;50.792;0.252;2022-07-24T03:54:51;2.83;;;1.27;;
14369;SDS011;7268;50.792;0.252;2022-07-24T03:57:19;3.17;;;1.20;;
14369;SDS011;7268;50.792;0.252;2022-07-24T03:59:46;5.00;;;1.55;;
14369;SDS011;7268;50.792;0.252;2022-07-24T04:02:13;3.42;;;1.58;;
14369;SDS011;7268;50.792;0.252;2022-07-24T04:04:40;5.00;;;1.63;;
14369;SDS011;7268;50.792;0.252;2022-07-24T04:07:08;3.53;;;1.13;;
14369;SDS011;7268;50.792;0.252;2022-07-24T04:09:35;4.47;;;1.30;;
14369;SDS011;7268;50.792;0.252;2022-07-24T04:12:02;4.43;;;1.20;;
14369;SDS011;7268;50.792;0.252;2022-07-24T04:14:30;5.85;;;1.08;;
14369;SDS011;7268;50.792;0.252;2022-07-24T04:16:58;5.28;;;1.17;;
14369;SDS011;7268;50.792;0.252;2022-07-24T04:19:26;2.15;;;1.13;;
14369;SDS011;7268;50.792;0.252;2022-07-24T04:21:53;1.98;;;0.88;;
14369;SDS011;7268;50.792;0.252;2022-07-24T04:24:20;2.25;;;1.23;;
14369;SDS011;7268;50.792;0.252;2022-07-24T04:26:48;2.40;;;1.33;;
14369;SDS011;7268;50.792;0.252;2022-07-24T04:29:15;5.47;;;1.40;;
14369;SDS011;7268;50.792;0.252;2022-07-24T04:31:48;3.75;;;1.15;;
14369;SDS011;7268;50.792;0.252;2022-07-24T04:34:15;3.75;;;1.17;;
14369;SDS011;7268;50.792;0.252;2022-07-24T04:36:42;4.30;;;1.20;;
14369;SDS011;7268;50.792;0.252;2022-07-24T04:39:10;2.50;;;1.00;;
14369;SDS011;7268;50.792;0.252;2022-07-24T04:41:39;2.50;;;0.98;;
14369;SDS011;7268;50.792;0.252;2022-07-24T04:44:06;3.60;;;1.08;;
14369;SDS011;7268;50.792;0.252;2022-07-24T04:46:33;4.95;;;1.10;;
14369;SDS011;7268;50.792;0.252;2022-07-24T04:49:01;4.32;;;1.30;;
14369;SDS011;7268;50.792;0.252;2022-07-24T04:51:29;3.28;;;1.30;;
14369;SDS011;7268;50.792;0.252;2022-07-24T04:53:56;1.42;;;1.00;;
14369;SDS011;7268;50.792;0.252;2022-07-24T04:56:24;2.65;;;1.40;;
14369;SDS011;7268;50.792;0.252;2022-07-24T04:58:51;6.00;;;1.00;;
14369;SDS011;7268;50.792;0.252;2022-07-24T05:01:18;5.40;;;1.25;;
14369;SDS011;7268;50.792;0.252;2022-07-24T05:03:45;3.92;;;1.33;;
14369;SDS011;7268;50.792;0.252;2022-07-24T05:06:13;5.10;;;1.30;;
14369;SDS011;7268;50.792;0.252;2022-07-24T05:08:40;7.95;;;2.08;;
14369;SDS011;7268;50.792;0.252;2022-07-24T05:11:07;3.60;;;1.20;;
14369;SDS011;7268;50.792;0.252;2022-07-24T05:13:35;3.90;;;1.35;;
14369;SDS011;7268;50.792;0.252;2022-07-24T05:16:02;4.10;;;1.00;;
14369;SDS011;7268;50.792;0.252;2022-07-24T05:18:30;3.65;;;1.05;;
14369;SDS011;7268;50.792;0.252;2022-07-24T05:20:57;1.75;;;0.82;;
14369;SDS011;7268;50.792;0.252;2022-07-24T05:23:25;9.27;;;1.00;;
14369;SDS011;7268;50.792;0.252;2022-07-24T05:25:52;3.25;;;0.90;;
14369;SDS011;7268;50.792;0.252;2022-07-24T05:28:19;7.32;;;0.93;;
14369;SDS011;7268;50.792;0.252;2022-07-24T05:30:46;5.00;;;1.10;;
14369;SDS011;7268;50.792;0.252;2022-07-24T05:33:14;2.78;;;1.10;;
14369;SDS011;7268;50.792;0.252;2022-07-24T05:35:41;1.45;;;1.00;;
14369;SDS011;7268;50.792;0.252;2022-07-24T05:38:14;2.00;;;0.90;;
14369;SDS011;7268;50.792;0.252;2022-07-24T05:40:41;1.77;;;0.80;;
14369;SDS011;7268;50.792;0.252;2022-07-24T05:43:08;1.33;;;0.98;;
14369;SDS011;7268;50.792;0.252;2022-07-24T05:45:36;3.92;;;0.85;;
14369;SDS011;7268;50.792;0.252;2022-07-24T05:48:03;1.40;;;0.88;;
14369;SDS011;7268;50.792;0.252;2022-07-24T05:50:31;1.45;;;0.90;;
14369;SDS011;7268;50.792;0.252;2022-07-24T05:52:58;2.95;;;0.93;;
14369;SDS011;7268;50.792;0.252;2022-07-24T05:55:25;2.17;;;0.93;;
14369;SDS011;7268;50.792;0.252;2022-07-24T05:57:54;4.88;;;1.10;;
14369;SDS011;7268;50.792;0.252;2022-07-24T06:00:22;3.55;;;0.90;;
14369;SDS011;7268;50.792;0.252;2022-07-24T06:02:49;3.13;;;1.10;;
14369;SDS011;7268;50.792;0.252;2022-07-24T06:05:16;2.47;;;0.82;;
14369;SDS011;7268;50.792;0.252;2022-07-24T06:07:44;1.02;;;0.80;;
14369;SDS011;7268;50.792;0.252;2022-07-24T06:10:11;2.78;;;0.73;;
14369;SDS011;7268;50.792;0.252;2022-07-24T06:12:41;1.95;;;0.90;;
14369;SDS011;7268;50.792;0.252;2022-07-24T06:15:09;1.35;;;0.70;;
14369;SDS011;7268;50.792;0.252;2022-07-24T06:17:36;2.47;;;0.70;;
14369;SDS011;7268;50.792;0.252;2022-07-24T06:20:05;1.15;;;0.60;;
14369;SDS011;7268;50.792;0.252;2022-07-24T06:22:32;1.95;;;0.70;;
14369;SDS011;7268;50.792;0.252;2022-07-24T06:25:00;3.50;;;0.98;;
14369;SDS011;7268;50.792;0.252;2022-07-24T06:27:27;2.28;;;0.90;;
14369;SDS011;7268;50.792;0.252;2022-07-24T06:29:54;2.50;;;0.70;;
14369;SDS011;7268;50.792;0.252;2022-07-24T06:32:22;1.75;;;0.85;;
14369;SDS011;7268;50.792;0.252;2022-07-24T06:34:49;3.00;;;0.90;;
14369;SDS011;7268;50.792;0.252;2022-07-24T06:37:17;1.88;;;0.90;;
14369;SDS011;7268;50.792;0.252;2022-07-24T06:39:46;2.53;;;1.10;;
14369;SDS011;7268;50.792;0.252;2022-07-24T06:42:13;3.55;;;0.80;;
14369;SDS011;7268;50.792;0.252;2022-07-24T06:44:40;2.92;;;1.00;;
14369;SDS011;7268;50.792;0.252;2022-07-24T06:47:08;1.38;;;0.90;;
14369;SDS011;7268;50.792;0.252;2022-07-24T06:49:35;3.22;;;1.02;;
14369;SDS011;7268;50.792;0.252;2022-07-24T06:52:02;6.68;;;0.82;;
14369;SDS011;7268;50.792;0.252;2022-07-24T06:54:30;3.25;;;0.90;;
14369;SDS011;7268;50.792;0.252;2022-07-24T06:56:57;2.83;;;0.80;;
14369;SDS011;7268;50.792;0.252;2022-07-24T06:59:25;3.67;;;1.10;;
14369;SDS011;7268;50.792;0.252;2022-07-24T07:01:52;2.85;;;1.17;;
14369;SDS011;7268;50.792;0.252;2022-07-24T07:04:19;4.40;;;0.73;;
14369;SDS011;7268;50.792;0.252;2022-07-24T07:06:47;5.05;;;0.80;;
14369;SDS011;7268;50.792;0.252;2022-07-24T07:09:14;1.10;;;0.88;;
14369;SDS011;7268;50.792;0.252;2022-07-24T07:11:42;1.83;;;0.95;;
14369;SDS011;7268;50.792;0.252;2022-07-24T07:14:17;1.75;;;0.90;;
14369;SDS011;7268;50.792;0.252;2022-07-24T07:16:44;3.72;;;0.85;;
14369;SDS011;7268;50.792;0.252;2022-07-24T07:19:12;2.85;;;0.85;;
14369;SDS011;7268;50.792;0.252;2022-07-24T07:21:39;3.53;;;0.90;;
14369;SDS011;7268;50.792;0.252;2022-07-24T07:24:06;3.50;;;0.57;;
14369;SDS011;7268;50.792;0.252;2022-07-24T07:26:34;2.45;;;0.63;;
14369;SDS011;7268;50.792;0.252;2022-07-24T07:29:01;2.55;;;0.70;;
14369;SDS011;7268;50.792;0.252;2022-07-24T07:31:29;4.85;;;0.73;;
14369;SDS011;7268;50.792;0.252;2022-07-24T07:33:57;2.47;;;0.90;;
14369;SDS011;7268;50.792;0.252;2022-07-24T07:36:24;1.80;;;0.80;;
14369;SDS011;7268;50.792;0.252;2022-07-24T07:38:51;2.42;;;0.70;;
14369;SDS011;7268;50.792;0.252;2022-07-24T07:41:19;2.15;;;1.00;;
14369;SDS011;7268;50.792;0.252;2022-07-24T07:43:46;2.47;;;0.90;;
14369;SDS011;7268;50.792;0.252;2022-07-24T07:46:14;8.50;;;0.80;;
14369;SDS011;7268;50.792;0.252;2022-07-24T07:48:41;4.65;;;0.98;;
14369;SDS011;7268;50.792;0.252;2022-07-24T07:51:09;3.08;;;0.70;;
14369;SDS011;7268;50.792;0.252;2022-07-24T07:53:36;2.40;;;0.90;;
14369;SDS011;7268;50.792;0.252;2022-07-24T07:56:04;2.53;;;0.93;;
14369;SDS011;7268;50.792;0.252;2022-07-24T07:58:31;6.50;;;0.98;;
14369;SDS011;7268;50.792;0.252;2022-07-24T08:00:58;2.40;;;0.70;;
14369;SDS011;7268;50.792;0.252;2022-07-24T08:03:26;2.88;;;0.80;;
14369;SDS011;7268;50.792;0.252;2022-07-24T08:05:53;4.90;;;0.80;;
14369;SDS011;7268;50.792;0.252;2022-07-24T08:08:24;2.95;;;0.90;;
14369;SDS011;7268;50.792;0.252;2022-07-24T08:10:52;5.38;;;0.93;;
14369;SDS011;7268;50.792;0.252;2022-07-24T08:13:19;3.15;;;0.95;;
14369;SDS011;7268;50.792;0.252;2022-07-24T08:15:49;5.28;;;0.80;;
14369;SDS011;7268;50.792;0.252;2022-07-24T08:18:17;2.97;;;1.17;;
14369;SDS011;7268;50.792;0.252;2022-07-24T08:20:44;1.58;;;0.70;;
14369;SDS011;7268;50.792;0.252;2022-07-24T08:23:12;2.45;;;0.80;;
14369;SDS011;7268;50.792;0.252;2022-07-24T08:25:39;1.15;;;0.70;;
14369;SDS011;7268;50.792;0.252;2022-07-24T08:28:06;3.72;;;0.90;;
14369;SDS011;7268;50.792;0.252;2022-07-24T08:30:34;0.93;;;0.60;;
14369;SDS011;7268;50.792;0.252;2022-07-24T08:33:01;2.05;;;0.80;;
14369;SDS011;7268;50.792;0.252;2022-07-24T08:35:28;1.08;;;0.73;;
14369;SDS011;7268;50.792;0.252;2022-07-24T08:37:58;1.88;;;0.60;;
14369;SDS011;7268;50.792;0.252;2022-07-24T08:40:29;3.63;;;0.90;;
14369;SDS011;7268;50.792;0.252;2022-07-24T08:42:59;0.90;;;0.80;;
14369;SDS011;7268;50.792;0.252;2022-07-24T08:45:27;1.00;;;0.82;;
14369;SDS011;7268;50.792;0.252;2022-07-24T08:47:55;1.05;;;0.80;;
14369;SDS011;7268;50.792;0.252;2022-07-24T08:50:23;2.80;;;1.00;;
14369;SDS011;7268;50.792;0.252;2022-07-24T08:52:50;1.67;;;0.90;;
14369;SDS011;7268;50.792;0.252;2022-07-24T08:55:18;1.42;;;0.82;;
14369;SDS011;7268;50.792;0.252;2022-07-24T08:57:45;2.55;;;1.05;;
14369;SDS011;7268;50.792;0.252;2022-07-24T09:00:13;2.72;;;0.88;;
14369;SDS011;7268;50.792;0.252;2022-07-24T09:02:40;2.72;;;0.77;;
14369;SDS011;7268;50.792;0.252;2022-07-24T09:05:08;1.95;;;0.82;;
14369;SDS011;7268;50.792;0.252;2022-07-24T09:07:35;1.45;;;0.90;;
14369;SDS011;7268;50.792;0.252;2022-07-24T09:10:04;1.30;;;0.98;;
14369;SDS011;7268;50.792;0.252;2022-07-24T09:12:35;2.10;;;0.70;;
14369;SDS011;7268;50.792;0.252;2022-07-24T09:15:18;2.72;;;0.80;;
14369;SDS011;7268;50.792;0.252;2022-07-24T09:17:50;3.40;;;0.82;;
14369;SDS011;7268;50.792;0.252;2022-07-24T09:20:18;2.43;;;0.70;;
14369;SDS011;7268;50.792;0.252;2022-07-24T09:22:47;1.00;;;0.90;;
14369;SDS011;7268;50.792;0.252;2022-07-24T09:25:19;1.25;;;0.75;;
14369;SDS011;7268;50.792;0.252;2022-07-24T09:30:28;1.95;;;0.80;;
14369;SDS011;7268;50.792;0.252;2022-07-24T09:32:59;2.10;;;0.77;;
14369;SDS011;7268;50.792;0.252;2022-07-24T09:38:05;1.85;;;0.73;;
14369;SDS011;7268;50.792;0.252;2022-07-24T09:40:33;1.85;;;1.05;;
14369;SDS011;7268;50.792;0.252;2022-07-24T09:43:14;7.25;;;1.10;;
14369;SDS011;7268;50.792;0.252;2022-07-24T09:45:52;2.47;;;0.93;;
14369;SDS011;7268;50.792;0.252;2022-07-24T09:48:20;1.33;;;0.95;;
14369;SDS011;7268;50.792;0.252;2022-07-24T09:50:52;3.30;;;0.70;;
14369;SDS011;7268;50.792;0.252;2022-07-24T09:53:21;5.75;;;0.80;;
14369;SDS011;7268;50.792;0.252;2022-07-24T09:56:23;1.73;;;0.80;;
14369;SDS011;7268;50.792;0.252;2022-07-24T10:01:14;2.15;;;0.80;;
14369;SDS011;7268;50.792;0.252;2022-07-24T10:03:42;1.17;;;0.70;;
14369;SDS011;7268;50.792;0.252;2022-07-24T10:06:14;3.72;;;0.82;;
14369;SDS011;7268;50.792;0.252;2022-07-24T10:08:44;3.03;;;0.88;;
14369;SDS011;7268;50.792;0.252;2022-07-24T10:11:12;1.42;;;0.90;;
14369;SDS011;7268;50.792;0.252;2022-07-24T10:13:39;1.92;;;0.90;;
14369;SDS011;7268;50.792;0.252;2022-07-24T10:21:06;3.45;;;0.82;;
14369;SDS011;7268;50.792;0.252;2022-07-24T10:23:58;1.58;;;0.77;;
14369;SDS011;7268;50.792;0.252;2022-07-24T10:26:34;1.20;;;0.80;;
14369;SDS011;7268;50.792;0.252;2022-07-24T10:31:37;3.10;;;0.77;;
14369;SDS011;7268;50.792;0.252;2022-07-24T10:36:54;1.02;;;0.63;;
14369;SDS011;7268;50.792;0.252;2022-07-24T10:39:25;2.10;;;0.60;;
14369;SDS011;7268;50.792;0.252;2022-07-24T10:42:04;2.28;;;0.50;;
14369;SDS011;7268;50.792;0.252;2022-07-24T10:44:32;2.88;;;0.60;;
14369;SDS011;7268;50.792;0.252;2022-07-24T10:47:03;0.80;;;0.63;;
14369;SDS011;7268;50.792;0.252;2022-07-24T10:52:04;1.35;;;0.60;;
14369;SDS011;7268;50.792;0.252;2022-07-24T10:54:31;1.88;;;0.60;;
14369;SDS011;7268;50.792;0.252;2022-07-24T10:56:59;0.50;;;0.50;;
14369;SDS011;7268;50.792;0.252;2022-07-24T11:04:46;2.08;;;0.60;;
14369;SDS011;7268;50.792;0.252;2022-07-24T11:07:13;0.73;;;0.52;;
14369;SDS011;7268;50.792;0.252;2022-07-24T11:10:00;1.77;;;0.50;;
14369;SDS011;7268;50.792;0.252;2022-07-24T11:12:29;1.45;;;0.60;;
14369;SDS011;7268;50.792;0.252;2022-07-24T11:15:04;1.38;;;0.60;;
14369;SDS011;7268;50.792;0.252;2022-07-24T11:17:53;0.90;;;0.60;;
14369;SDS011;7268;50.792;0.252;2022-07-24T11:20:20;1.80;;;0.57;;
14369;SDS011;7268;50.792;0.252;2022-07-24T11:22:49;4.25;;;0.80;;
14369;SDS011;7268;50.792;0.252;2022-07-24T11:25:18;0.85;;;0.50;;
14369;SDS011;7268;50.792;0.252;2022-07-24T11:27:46;1.52;;;0.50;;
14369;SDS011;7268;50.792;0.252;2022-07-24T11:30:14;2.53;;;0.80;;
14369;SDS011;7268;50.792;0.252;2022-07-24T11:32:42;3.03;;;0.60;;
14369;SDS011;7268;50.792;0.252;2022-07-24T11:35:10;1.25;;;0.60;;
14369;SDS011;7268;50.792;0.252;2022-07-24T11:37:39;1.90;;;0.70;;
14369;SDS011;7268;50.792;0.252;2022-07-24T11:40:07;0.77;;;0.60;;
14369;SDS011;7268;50.792;0.252;2022-07-24T11:42:35;1.20;;;0.60;;
14369;SDS011;7268;50.792;0.252;2022-07-24T11:45:02;2.80;;;0.70;;
14369;SDS011;7268;50.792;0.252;2022-07-24T11:47:30;1.17;;;0.40;;
14369;SDS011;7268;50.792;0.252;2022-07-24T11:50:01;3.42;;;0.60;;
14369;SDS011;7268;50.792;0.252;2022-07-24T11:52:31;0.73;;;0.50;;
14369;SDS011;7268;50.792;0.252;2022-07-24T11:55:04;2.25;;;0.60;;
14369;SDS011;7268;50.792;0.252;2022-07-24T11:57:43;0.68;;;0.40;;
14369;SDS011;7268;50.792;0.252;2022-07-24T12:00:30;2.00;;;0.50;;
14369;SDS011;7268;50.792;0.252;2022-07-24T12:02:58;1.33;;;0.57;;
14369;SDS011;7268;50.792;0.252;2022-07-24T12:05:29;2.10;;;0.70;;
14369;SDS011;7268;50.792;0.252;2022-07-24T12:07:57;2.53;;;0.60;;
14369;SDS011;7268;50.792;0.252;2022-07-24T12:10:26;0.95;;;0.50;;
14369;SDS011;7268;50.792;0.252;2022-07-24T12:12:54;0.95;;;0.50;;
14369;SDS011;7268;50.792;0.252;2022-07-24T12:15:23;1.58;;;0.55;;
14369;SDS011;7268;50.792;0.252;2022-07-24T12:20:34;4.28;;;0.60;;
14369;SDS011;7268;50.792;0.252;2022-07-24T12:23:03;0.63;;;0.40;;
14369;SDS011;7268;50.792;0.252;2022-07-24T12:25:31;0.88;;;0.43;;
14369;SDS011;7268;50.792;0.252;2022-07-24T12:30:33;2.03;;;0.55;;
14369;SDS011;7268;50.792;0.252;2022-07-24T12:33:02;2.90;;;0.60;;
14369;SDS011;7268;50.792;0.252;2022-07-24T12:35:31;2.30;;;0.50;;
14369;SDS011;7268;50.792;0.252;2022-07-24T12:37:59;0.52;;;0.40;;
14369;SDS011;7268;50.792;0.252;2022-07-24T12:40:30;1.50;;;0.55;;
14369;SDS011;7268;50.792;0.252;2022-07-24T12:45:25;0.50;;;0.50;;
14369;SDS011;7268;50.792;0.252;2022-07-24T12:50:36;3.75;;;0.60;;
14369;SDS011;7268;50.792;0.252;2022-07-24T12:53:22;0.65;;;0.50;;
14369;SDS011;7268;50.792;0.252;2022-07-24T13:01:18;1.02;;;0.50;;
14369;SDS011;7268;50.792;0.252;2022-07-24T13:03:51;1.13;;;0.40;;
14369;SDS011;7268;50.792;0.252;2022-07-24T13:06:29;1.10;;;0.40;;
14369;SDS011;7268;50.792;0.252;2022-07-24T13:08:57;0.90;;;0.57;;
14369;SDS011;7268;50.792;0.252;2022-07-24T13:11:25;1.90;;;0.60;;
14369;SDS011;7268;50.792;0.252;2022-07-24T13:13:52;0.68;;;0.43;;
14369;SDS011;7268;50.792;0.252;2022-07-24T13:16:22;2.80;;;0.63;;
14369;SDS011;7268;50.792;0.252;2022-07-24T13:18:53;0.60;;;0.50;;
14369;SDS011;7268;50.792;0.252;2022-07-24T13:21:23;0.70;;;0.40;;
14369;SDS011;7268;50.792;0.252;2022-07-24T13:23:51;1.67;;;0.40;;
14369;SDS011;7268;50.792;0.252;2022-07-24T13:26:19;0.77;;;0.47;;
14369;SDS011;7268;50.792;0.252;2022-07-24T13:28:46;0.73;;;0.52;;
14369;SDS011;7268;50.792;0.252;2022-07-24T13:31:14;0.50;;;0.43;;
14369;SDS011;7268;50.792;0.252;2022-07-24T13:33:41;0.50;;;0.45;;
14369;SDS011;7268;50.792;0.252;2022-07-24T13:36:09;1.70;;;0.60;;
14369;SDS011;7268;50.792;0.252;2022-07-24T13:38:37;0.50;;;0.50;;
14369;SDS011;7268;50.792;0.252;2022-07-24T13:41:05;0.45;;;0.40;;
14369;SDS011;7268;50.792;0.252;2022-07-24T13:43:32;0.68;;;0.47;;
14369;SDS011;7268;50.792;0.252;2022-07-24T13:45:59;1.63;;;0.60;;
14369;SDS011;7268;50.792;0.252;2022-07-24T13:48:27;0.75;;;0.43;;
14369;SDS011;7268;50.792;0.252;2022-07-24T13:50:54;0.77;;;0.50;;
14369;SDS011;7268;50.792;0.252;2022-07-24T13:53:22;1.17;;;0.50;;
14369;SDS011;7268;50.792;0.252;2022-07-24T13:55:49;1.83;;;0.60;;
14369;SDS011;7268;50.792;0.252;2022-07-24T13:58:17;0.70;;;0.40;;
14369;SDS011;7268;50.792;0.252;2022-07-24T14:00:44;1.25;;;0.40;;
14369;SDS011;7268;50.792;0.252;2022-07-24T14:03:12;0.98;;;0.45;;
14369;SDS011;7268;50.792;0.252;2022-07-24T14:05:59;0.70;;;0.40;;
14369;SDS011;7268;50.792;0.252;2022-07-24T14:08:27;0.80;;;0.50;;
14369;SDS011;7268;50.792;0.252;2022-07-24T14:10:55;0.95;;;0.38;;
14369;SDS011;7268;50.792;0.252;2022-07-24T14:13:22;0.65;;;0.40;;
14369;SDS011;7268;50.792;0.252;2022-07-24T14:15:50;1.40;;;0.50;;
14369;SDS011;7268;50.792;0.252;2022-07-24T14:18:17;2.55;;;0.57;;
14369;SDS011;7268;50.792;0.252;2022-07-24T14:20:44;3.72;;;0.45;;
14369;SDS011;7268;50.792;0.252;2022-07-24T14:23:12;0.50;;;0.50;;
14369;SDS011;7268;50.792;0.252;2022-07-24T14:25:39;0.63;;;0.50;;
14369;SDS011;7268;50.792;0.252;2022-07-24T14:28:07;0.73;;;0.60;;
14369;SDS011;7268;50.792;0.252;2022-07-24T14:30:34;2.15;;;0.77;;
14369;SDS011;7268;50.792;0.252;2022-07-24T14:33:01;1.92;;;0.55;;
14369;SDS011;7268;50.792;0.252;2022-07-24T14:35:28;1.23;;;0.50;;
14369;SDS011;7268;50.792;0.252;2022-07-24T14:37:57;1.15;;;0.50;;
14369;SDS011;7268;50.792;0.252;2022-07-24T14:40:24;0.50;;;0.40;;
14369;SDS011;7268;50.792;0.252;2022-07-24T14:42:52;1.48;;;0.50;;
14369;SDS011;7268;50.792;0.252;2022-07-24T14:45:21;0.93;;;0.50;;
14369;SDS011;7268;50.792;0.252;2022-07-24T14:47:48;0.73;;;0.50;;
14369;SDS011;7268;50.792;0.252;2022-07-24T14:50:16;0.63;;;0.45;;
14369;SDS011;7268;50.792;0.252;2022-07-24T14:52:47;0.95;;;0.50;;
14369;SDS011;7268;50.792;0.252;2022-07-24T14:55:14;1.90;;;0.52;;
14369;SDS011;7268;50.792;0.252;2022-07-24T14:57:42;0.65;;;0.50;;
14369;SDS011;7268;50.792;0.252;2022-07-24T15:00:10;0.85;;;0.50;;
14369;SDS011;7268;50.792;0.252;2022-07-24T15:02:37;1.02;;;0.55;;
14369;SDS011;7268;50.792;0.252;2022-07-24T15:05:05;0.70;;;0.70;;
14369;SDS011;7268;50.792;0.252;2022-07-24T15:07:32;1.40;;;0.47;;
14369;SDS011;7268;50.792;0.252;2022-07-24T15:10:00;0.88;;;0.47;;
14369;SDS011;7268;50.792;0.252;2022-07-24T15:12:28;2.92;;;0.50;;
14369;SDS011;7268;50.792;0.252;2022-07-24T15:14:55;1.77;;;0.38;;
14369;SDS011;7268;50.792;0.252;2022-07-24T15:17:23;1.50;;;0.45;;
14369;SDS011;7268;50.792;0.252;2022-07-24T15:19:50;0.73;;;0.40;;
14369;SDS011;7268;50.792;0.252;2022-07-24T15:22:17;0.55;;;0.40;;
14369;SDS011;7268;50.792;0.252;2022-07-24T15:24:45;2.85;;;0.47;;
14369;SDS011;7268;50.792;0.252;2022-07-24T15:27:12;3.03;;;0.50;;
14369;SDS011;7268;50.792;0.252;2022-07-24T15:29:39;0.88;;;0.52;;
14369;SDS011;7268;50.792;0.252;2022-07-24T15:32:07;1.75;;;0.50;;
14369;SDS011;7268;50.792;0.252;2022-07-24T15:34:34;1.45;;;0.57;;
14369;SDS011;7268;50.792;0.252;2022-07-24T15:37:01;0.98;;;0.47;;
14369;SDS011;7268;50.792;0.252;2022-07-24T15:39:29;0.52;;;0.40;;
14369;SDS011;7268;50.792;0.252;2022-07-24T15:41:56;2.10;;;0.60;;
14369;SDS011;7268;50.792;0.252;2022-07-24T15:44:24;0.73;;;0.40;;
14369;SDS011;7268;50.792;0.252;2022-07-24T15:46:51;0.60;;;0.40;;
14369;SDS011;7268;50.792;0.252;2022-07-24T15:49:19;2.03;;;0.60;;